Time;durP1;ratioP1;P1;durP2;ratioP2;P2;SDS_P1;SDS_P2;PMS_P1;PMS_P2;Temp;Humidity;BMP_temperature;BMP_pressure;BME280_temperature;BME280_humidity;BME280_pressure;Samples;Min_cycle;Max_cycle;Signal;HPM_P1;HPM_P2
2024/02/19 11:11:09;;;;;;;2.38;0.90;;;17.70;63.30;;;;;;6280057;22;20291;-89
2024/02/19 11:14:19;;;;;;;1.98;0.90;;;17.70;63.40;;;;;;6240874;22;20155;-89
2024/02/19 11:17:59;;;;;;;;;;;;;;;;;;;;;
2024/02/19 11:21:33;;;;;;;4.03;1.00;;;17.80;63.00;;;;;;6129217;23;20174;-91
2024/02/19 11:24:07;;;;;;;2.10;0.80;;;17.70;63.60;;;;;;6082159;23;20715;-89
2024/02/19 11:26:49;;;;;;;2.83;0.90;;;17.70;63.60;;;;;;6032630;23;20200;-90
2024/02/19 11:29:22;;;;;;;1.52;0.70;;;17.70;63.60;;;;;;6057064;23;20195;-90
2024/02/19 11:32:07;;;;;;;1.85;0.90;;;17.70;63.40;;;;;;5996988;23;20165;-90
2024/02/19 11:34:41;;;;;;;0.70;0.68;;;17.80;63.40;;;;;;5951687;23;20166;-91
2024/02/19 11:37:13;;;;;;;0.70;0.68;;;17.70;63.60;;;;;;5953559;23;20213;-90
2024/02/19 11:39:49;;;;;;;1.45;0.70;;;17.70;63.20;;;;;;5999672;23;20159;-89
2024/02/19 11:42:32;;;;;;;2.38;0.70;;;17.70;63.20;;;;;;5986976;24;20155;-90
2024/02/19 11:45:05;;;;;;;1.30;0.90;;;17.70;63.40;;;;;;5969019;24;20159;-90
2024/02/19 11:47:48;;;;;;;1.88;0.90;;;17.80;63.50;;;;;;5970187;24;20152;-90
2024/02/19 11:50:38;;;;;;;2.88;0.80;;;17.80;63.10;;;;;;5967830;24;20159;-90
2024/02/19 11:53:27;;;;;;;1.52;0.98;;;17.70;63.50;;;;;;5943039;24;20175;-90
2024/02/19 11:58:38;;;;;;;2.72;1.00;;;17.80;63.10;;;;;;6279571;22;20248;-89
2024/02/19 12:01:08;;;;;;;1.17;1.08;;;17.80;62.90;;;;;;6199993;23;20162;-88
2024/02/19 12:03:45;;;;;;;5.95;1.00;;;17.80;63.10;;;;;;6146672;23;20212;-90
2024/02/19 12:06:26;;;;;;;2.55;0.90;;;17.80;63.20;;;;;;6141250;23;20505;-89
2024/02/19 12:08:56;;;;;;;2.67;1.35;;;17.70;63.10;;;;;;6118547;23;20240;-88
2024/02/19 12:11:27;;;;;;;1.50;1.10;;;17.70;63.20;;;;;;6250466;22;20795;-89
2024/02/19 12:13:57;;;;;;;2.63;0.93;;;17.70;63.00;;;;;;6176712;22;20290;-89
2024/02/19 12:16:25;;;;;;;1.67;0.85;;;17.70;63.50;;;;;;6180965;22;20238;-88
2024/02/19 12:18:52;;;;;;;2.85;0.90;;;17.70;63.50;;;;;;6215597;23;20460;-88
2024/02/19 12:21:18;;;;;;;1.10;0.98;;;17.70;63.20;;;;;;6165170;23;20150;-90
2024/02/19 12:23:50;;;;;;;1.48;0.80;;;17.70;63.00;;;;;;6189975;23;20170;-88
2024/02/19 12:26:18;;;;;;;1.63;1.00;;;17.70;63.60;;;;;;6146691;23;20164;-89
2024/02/19 12:28:52;;;;;;;3.28;1.00;;;17.70;63.10;;;;;;6174745;23;20154;-90
2024/02/19 12:31:35;;;;;;;2.00;1.00;;;17.70;63.10;;;;;;6112141;23;20155;-90
2024/02/19 12:34:06;;;;;;;1.50;0.80;;;17.80;63.00;;;;;;6086637;23;20231;-89
2024/02/19 12:36:35;;;;;;;1.60;1.30;;;17.80;63.10;;;;;;6082049;23;20157;-88
2024/02/19 12:39:09;;;;;;;2.15;1.10;;;17.70;63.90;;;;;;6080441;23;20148;-88
2024/02/19 12:41:37;;;;;;;1.85;0.90;;;17.70;63.00;;;;;;6105165;23;20150;-90
2024/02/19 12:44:03;;;;;;;1.00;0.80;;;17.70;63.40;;;;;;6082970;23;20182;-90
2024/02/19 12:46:29;;;;;;;1.33;0.85;;;17.80;62.20;;;;;;6080046;23;20217;-87
2024/02/19 12:49:00;;;;;;;2.05;1.20;;;17.80;62.90;;;;;;6111146;23;20237;-88
2024/02/19 12:51:37;;;;;;;1.17;0.95;;;17.80;62.30;;;;;;6138357;23;20149;-88
2024/02/19 12:54:17;;;;;;;1.90;1.08;;;17.80;62.50;;;;;;6194938;23;20164;-89
2024/02/19 12:59:23;;;;;;;2.35;0.93;;;17.80;62.90;;;;;;6295611;22;20206;-89
2024/02/19 13:02:05;;;;;;;1.98;1.17;;;17.80;62.60;;;;;;6180729;22;20159;-89
2024/02/19 13:04:34;;;;;;;3.00;1.17;;;17.80;62.30;;;;;;6171907;23;20196;-90
2024/02/19 13:07:06;;;;;;;1.15;1.05;;;17.80;62.70;;;;;;6169461;23;20150;-90
2024/02/19 13:10:31;;;;;;;;;;;;;;;;;;;;;
2024/02/19 13:13:11;;;;;;;1.75;0.85;;;17.80;62.50;;;;;;6192745;23;20277;-89
2024/02/19 13:16:00;;;;;;;1.00;0.90;;;17.80;63.30;;;;;;6110815;23;20160;-89
2024/02/19 13:18:33;;;;;;;1.60;0.82;;;17.70;63.30;;;;;;6002473;23;20501;-90
2024/02/19 13:21:04;;;;;;;0.70;0.70;;;17.70;63.00;;;;;;5991775;24;20224;-90
2024/02/19 13:23:37;;;;;;;1.25;0.57;;;17.80;63.40;;;;;;5938963;24;20262;-90
2024/02/19 13:26:09;;;;;;;0.70;0.70;;;17.80;63.70;;;;;;5942035;24;20245;-90
2024/02/19 13:28:48;;;;;;;1.67;0.90;;;17.80;63.50;;;;;;5991310;23;20157;-89
2024/02/19 13:34:42;;;;;;;1.52;0.90;;;17.70;62.50;;;;;;6077559;23;20188;-89
2024/02/19 13:37:44;;;;;;;2.05;1.00;;;17.90;62.10;;;;;;6025354;23;20495;-89
2024/02/19 13:40:12;;;;;;;1.88;0.90;;;17.90;62.60;;;;;;6014275;23;20157;-89
2024/02/19 13:42:39;;;;;;;1.13;0.95;;;17.90;62.20;;;;;;6027683;23;20141;-89
2024/02/19 13:45:25;;;;;;;1.35;0.95;;;17.80;62.90;;;;;;6022533;23;20276;-89
2024/02/19 13:48:03;;;;;;;1.10;0.90;;;17.90;62.50;;;;;;6086548;23;20159;-90
2024/02/19 13:50:29;;;;;;;1.30;1.00;;;17.80;62.60;;;;;;6110560;23;20551;-88
2024/02/19 13:52:58;;;;;;;0.90;0.90;;;17.80;62.90;;;;;;6139867;23;20553;-90
2024/02/19 13:56:14;;;;;;;1.33;1.00;;;17.80;62.50;;;;;;6151733;23;20146;-89
2024/02/19 13:59:05;;;;;;;1.13;0.90;;;17.80;62.70;;;;;;6131759;23;20203;-89
2024/02/19 14:02:52;;;;;;;1.25;1.00;;;17.80;62.50;;;;;;6068929;23;20245;-90
2024/02/19 14:05:34;;;;;;;1.52;0.77;;;17.80;62.30;;;;;;6007686;23;20163;-90
2024/02/19 14:08:06;;;;;;;1.20;1.00;;;17.80;63.00;;;;;;6024897;23;20599;-89
2024/02/19 14:10:34;;;;;;;1.38;1.08;;;17.80;63.80;;;;;;5997781;23;20155;-90
2024/02/19 14:13:15;;;;;;;1.85;1.23;;;17.80;62.60;;;;;;5989298;23;20600;-90
2024/02/19 14:15:55;;;;;;;1.25;1.10;;;17.80;62.40;;;;;;5996295;23;20237;-89
2024/02/19 14:18:24;;;;;;;1.58;1.30;;;17.90;63.00;;;;;;6005201;23;20214;-89
2024/02/19 14:21:10;;;;;;;1.13;1.02;;;17.80;62.20;;;;;;5992861;23;20234;-90
2024/02/19 14:23:42;;;;;;;1.40;1.05;;;17.80;62.50;;;;;;5968616;23;20186;-90
2024/02/19 14:26:28;;;;;;;;;;;;;;;;;;;;;
2024/02/19 14:29:17;;;;;;;1.20;1.00;;;17.80;62.60;;;;;;6256503;22;20325;-90
2024/02/19 14:31:55;;;;;;;0.80;0.80;;;17.80;62.30;;;;;;6206259;22;20220;-89
2024/02/19 21:37:29;;;;;;;2.70;0.93;;;18.00;66.30;;;;;;6286865;22;20264;-88
2024/02/19 21:40:13;;;;;;;1.20;1.05;;;18.00;66.40;;;;;;6241834;22;20604;-88
2024/02/19 21:42:50;;;;;;;0.80;0.80;;;18.10;66.70;;;;;;6168719;23;20152;-89
2024/02/19 21:45:19;;;;;;;1.55;1.05;;;18.00;66.60;;;;;;6209087;23;20153;-89
2024/02/19 21:47:50;;;;;;;1.10;1.00;;;18.00;67.50;;;;;;6235370;23;20145;-89
2024/02/19 21:50:16;;;;;;;1.10;1.00;;;18.00;66.90;;;;;;6235745;23;20153;-89
2024/02/19 21:52:44;;;;;;;1.92;0.95;;;17.90;66.80;;;;;;6264934;22;20236;-88
2024/02/19 21:55:14;;;;;;;1.27;0.90;;;17.90;66.90;;;;;;6214989;22;20155;-88
2024/02/19 21:57:43;;;;;;;1.50;1.10;;;17.90;66.80;;;;;;6190634;22;20148;-88
2024/02/19 22:00:15;;;;;;;1.00;0.90;;;17.90;66.80;;;;;;6265672;22;20140;-88
2024/02/19 22:02:52;;;;;;;1.55;1.05;;;17.90;66.80;;;;;;6140308;23;20148;-89
2024/02/19 22:05:24;;;;;;;1.77;1.00;;;17.90;67.00;;;;;;6114196;23;20221;-88
2024/02/19 22:08:26;;;;;;;1.02;0.93;;;17.90;67.00;;;;;;6116420;23;20152;-89
2024/02/19 22:11:18;;;;;;;1.23;0.80;;;17.90;67.00;;;;;;6091197;23;20151;-88
2024/02/19 22:14:05;;;;;;;1.45;1.10;;;17.90;66.90;;;;;;6092944;23;20159;-89
2024/02/19 22:16:44;;;;;;;1.35;1.02;;;17.80;67.20;;;;;;6091857;23;20184;-89
2024/02/19 22:19:31;;;;;;;1.27;1.10;;;17.80;67.20;;;;;;6053257;23;20219;-89
2024/02/19 22:22:05;;;;;;;1.20;1.10;;;17.90;67.20;;;;;;6031768;23;20164;-88
2024/02/19 22:24:34;;;;;;;1.25;1.15;;;17.80;67.00;;;;;;6077137;23;20176;-89
2024/02/19 22:27:07;;;;;;;1.13;0.93;;;17.90;67.20;;;;;;6059139;23;20193;-89
2024/02/19 22:29:37;;;;;;;1.17;1.08;;;17.80;67.20;;;;;;6059814;23;20249;-89
2024/02/19 22:32:08;;;;;;;1.00;0.90;;;17.80;67.20;;;;;;6033304;23;20157;-89
2024/02/19 22:34:51;;;;;;;2.00;1.08;;;17.80;67.40;;;;;;6107951;23;20163;-89
2024/02/19 22:37:24;;;;;;;0.80;0.80;;;17.70;67.20;;;;;;6114561;23;20508;-89
2024/02/19 22:40:13;;;;;;;2.40;1.00;;;17.70;67.20;;;;;;6081161;23;20181;-89
2024/02/19 22:42:56;;;;;;;2.10;1.00;;;17.80;66.90;;;;;;6026981;23;20150;-89
2024/02/19 22:45:28;;;;;;;2.38;1.30;;;17.70;67.00;;;;;;6114704;23;20152;-88
2024/02/19 22:48:04;;;;;;;1.80;1.10;;;17.70;66.90;;;;;;6087138;23;20153;-88
2024/02/19 22:50:48;;;;;;;0.80;0.80;;;17.70;67.10;;;;;;6126946;23;20151;-88
2024/02/19 22:53:18;;;;;;;1.23;1.13;;;17.70;67.40;;;;;;6058001;23;20580;-89
2024/02/19 22:55:48;;;;;;;1.65;1.17;;;17.70;67.20;;;;;;6033925;23;20165;-89
2024/02/19 22:58:23;;;;;;;1.13;0.98;;;17.80;67.10;;;;;;5966357;24;20188;-89
2024/02/19 23:01:06;;;;;;;1.00;0.90;;;17.70;67.10;;;;;;5922106;24;20155;-89
2024/02/19 23:03:40;;;;;;;1.70;0.93;;;17.70;67.00;;;;;;5924931;24;20328;-89
2024/02/19 23:06:30;;;;;;;1.55;1.17;;;17.70;67.10;;;;;;5944387;24;20173;-89
2024/02/19 23:09:09;;;;;;;1.13;1.02;;;17.70;67.00;;;;;;5966998;23;20160;-89
2024/02/19 23:11:43;;;;;;;1.55;1.00;;;17.70;67.10;;;;;;5967476;24;20223;-89
2024/02/19 23:14:18;;;;;;;1.55;1.00;;;17.70;67.40;;;;;;5995632;23;20163;-89
2024/02/19 23:16:50;;;;;;;2.58;1.00;;;17.70;67.40;;;;;;5971950;24;20257;-89
2024/02/19 23:19:26;;;;;;;1.65;1.10;;;17.70;66.90;;;;;;5971711;24;20202;-89
2024/02/19 23:22:14;;;;;;;1.88;1.05;;;17.70;66.80;;;;;;6032683;23;20250;-89
2024/02/19 23:24:55;;;;;;;1.10;1.00;;;17.70;67.10;;;;;;5995326;24;20191;-88
2024/02/19 23:28:09;;;;;;;2.58;1.52;;;17.70;66.90;;;;;;5926560;24;20159;-89
2024/02/19 23:30:52;;;;;;;1.27;1.10;;;17.70;67.00;;;;;;6018027;23;20180;-89
2024/02/19 23:33:20;;;;;;;1.48;1.10;;;17.70;67.20;;;;;;6016103;23;20153;-89
2024/02/19 23:35:54;;;;;;;1.20;1.10;;;17.70;67.10;;;;;;5986805;23;20186;-89
2024/02/19 23:38:25;;;;;;;1.08;0.93;;;17.60;67.10;;;;;;6012145;23;20287;-89
2024/02/19 23:41:00;;;;;;;1.38;1.05;;;17.70;67.10;;;;;;6062141;23;20156;-88
2024/02/19 23:43:36;;;;;;;1.90;1.20;;;17.60;67.10;;;;;;6003638;23;20208;-89
2024/02/19 23:46:11;;;;;;;1.35;1.20;;;17.60;67.20;;;;;;5949528;24;20159;-89
2024/02/19 23:48:49;;;;;;;1.50;0.82;;;17.60;67.10;;;;;;5955641;23;20185;-89
2024/02/19 23:51:23;;;;;;;1.58;1.00;;;17.60;66.70;;;;;;5940484;24;20157;-89
2024/02/19 23:54:02;;;;;;;2.00;0.90;;;17.60;67.20;;;;;;5933015;24;20193;-89
2024/02/19 23:56:58;;;;;;;1.65;1.10;;;17.60;67.30;;;;;;5960753;24;20192;-89
2024/02/19 23:59:50;;;;;;;1.40;1.23;;;17.60;67.60;;;;;;5964504;24;20156;-89
